createdAt,value
2022-08-09T00:01:43.218Z,45.84
2022-08-09T00:04:33.863Z,46.14
2022-08-09T00:07:07.679Z,46.18
2022-08-09T00:09:39.317Z,46.11
2022-08-09T00:12:09.707Z,46.25
2022-08-09T00:14:51.172Z,46.47
2022-08-09T00:18:05.710Z,46.58
2022-08-09T00:20:13.816Z,46.59
2022-08-09T00:22:44.824Z,46.65
2022-08-09T00:25:15.352Z,46.64
2022-08-09T00:27:53.040Z,46.93
2022-08-09T00:30:25.327Z,46.99
2022-08-09T00:32:54.432Z,47.31
2022-08-09T00:35:24.038Z,47.28
2022-08-09T00:37:57.401Z,47.79
2022-08-09T00:40:30.348Z,47.70
2022-08-09T00:44:20.482Z,47.95
2022-08-09T00:45:50.687Z,48.18
2022-08-09T00:48:22.231Z,48.19
2022-08-09T00:50:52.358Z,48.25
2022-08-09T00:53:24.077Z,48.18
2022-08-09T00:56:04.621Z,48.42
2022-08-09T00:58:36.055Z,48.43
2022-08-09T01:01:16.227Z,48.89
2022-08-09T01:03:52.553Z,48.93
2022-08-09T01:06:53.160Z,48.92
2022-08-09T01:09:36.649Z,49.09
2022-08-09T01:12:13.950Z,49.47
2022-08-09T01:14:56.893Z,49.46
2022-08-09T01:17:30.425Z,49.74
2022-08-09T01:20:04.795Z,50.02
2022-08-09T01:24:00.943Z,49.81
2022-08-09T01:26:09.579Z,50.25
2022-08-09T01:28:43.571Z,50.48
2022-08-09T01:32:29.703Z,50.65
2022-08-09T01:34:09.312Z,50.90
2022-08-09T01:36:39.979Z,50.89
2022-08-09T01:39:08.778Z,50.99
2022-08-09T01:41:56.101Z,50.83
2022-08-09T01:44:32.202Z,51.10
2022-08-09T01:47:02.027Z,50.95
2022-08-09T01:49:39.033Z,50.92
2022-08-09T01:52:11.820Z,50.93
2022-08-09T01:54:48.501Z,50.81
2022-08-09T01:57:18.522Z,51.02
2022-08-09T01:59:53.325Z,50.86
2022-08-09T02:02:32.529Z,51.15
2022-08-09T02:05:15.176Z,51.18
2022-08-09T02:08:35.282Z,51.46
2022-08-09T02:10:42.862Z,51.30
2022-08-09T02:13:21.929Z,51.37
2022-08-09T02:15:57.789Z,51.43
2022-08-09T02:18:31.691Z,51.49
2022-08-09T02:21:06.936Z,51.91
2022-08-09T02:23:42.999Z,51.57
2022-08-09T02:26:24.808Z,51.82
2022-08-09T02:28:57.271Z,52.21
2022-08-09T02:31:34.279Z,52.19
2022-08-09T02:34:13.872Z,52.48
2022-08-09T02:37:03.550Z,52.54
2022-08-09T02:39:41.873Z,52.58
2022-08-09T02:42:19.296Z,53.11
2022-08-09T02:44:58.961Z,53.53
2022-08-09T02:47:33.979Z,53.25
2022-08-09T02:50:18.630Z,53.39
2022-08-09T02:52:56.577Z,53.44
2022-08-09T02:55:46.334Z,53.60
2022-08-09T02:58:37.039Z,53.70
2022-08-09T03:01:07.809Z,54.04
2022-08-09T03:04:17.095Z,54.12
2022-08-09T03:06:29.731Z,54.11
2022-08-09T03:08:58.861Z,54.30
2022-08-09T03:12:06.287Z,54.57
2022-08-09T03:14:19.779Z,54.58
2022-08-09T03:16:55.940Z,54.77
2022-08-09T03:19:58.883Z,54.75
2022-08-09T03:22:41.736Z,55.06
2022-08-09T03:25:26.446Z,54.80
2022-08-09T03:28:02.063Z,55.13
2022-08-09T03:30:36.535Z,55.55
2022-08-09T03:33:17.958Z,55.62
2022-08-09T03:36:12.736Z,55.60
2022-08-09T03:38:42.012Z,56.09
2022-08-09T03:41:15.175Z,56.08
2022-08-09T03:44:03.148Z,56.51
2022-08-09T03:46:34.526Z,56.37
2022-08-09T03:49:07.873Z,57.05
2022-08-09T03:51:57.487Z,57.09
2022-08-09T03:54:31.822Z,57.12
2022-08-09T03:57:17.867Z,57.59
2022-08-09T03:59:54.995Z,57.56
2022-08-09T04:02:30.043Z,57.71
2022-08-09T04:05:00.967Z,57.97
2022-08-09T04:07:47.743Z,58.07
2022-08-09T04:10:29.699Z,58.08
2022-08-09T04:13:03.910Z,58.48
2022-08-09T04:16:17.097Z,58.17
2022-08-09T04:18:21.907Z,58.41
2022-08-09T04:20:51.446Z,58.18
2022-08-09T04:23:24.775Z,58.19
2022-08-09T04:25:55.371Z,58.78
2022-08-09T04:28:33.349Z,58.76
2022-08-09T04:31:08.574Z,58.43
2022-08-09T04:33:47.489Z,58.31
2022-08-09T04:36:24.756Z,57.88
2022-08-09T04:38:55.797Z,57.83
2022-08-09T04:41:33.345Z,57.49
2022-08-09T04:44:06.581Z,57.23
2022-08-09T04:46:58.384Z,56.95
2022-08-09T04:49:53.341Z,56.88
2022-08-09T04:52:32.408Z,56.74
2022-08-09T04:55:04.689Z,56.59
2022-08-09T04:57:54.163Z,55.73
2022-08-09T05:00:31.852Z,55.06
2022-08-09T05:03:12.770Z,54.61
2022-08-09T05:06:06.759Z,54.49
2022-08-09T05:08:38.862Z,53.87
2022-08-09T05:11:13.330Z,54.23
2022-08-09T05:13:43.803Z,54.68
2022-08-09T05:16:12.109Z,53.43
2022-08-09T05:18:57.710Z,54.00
2022-08-09T05:21:29.878Z,53.46
2022-08-09T05:24:01.411Z,52.43
2022-08-09T05:26:45.427Z,53.25
2022-08-09T05:29:21.913Z,52.57
2022-08-09T05:31:57.667Z,53.14
2022-08-09T05:34:30.868Z,52.71
2022-08-09T05:37:02.449Z,52.29
2022-08-09T05:39:36.176Z,52.00
2022-08-09T05:42:17.438Z,53.01
2022-08-09T05:44:50.806Z,52.77
2022-08-09T05:47:19.214Z,52.21
2022-08-09T05:50:31.069Z,51.25
2022-08-09T05:52:36.350Z,50.77
2022-08-09T05:55:08.643Z,51.30
2022-08-09T05:57:51.315Z,51.93
2022-08-09T06:00:26.950Z,50.21
2022-08-09T06:02:57.789Z,49.63
2022-08-09T06:05:30.790Z,49.25
2022-08-09T06:08:19.686Z,48.25
2022-08-09T06:10:55.022Z,47.80
2022-08-09T06:13:25.010Z,47.55
2022-08-09T06:15:53.871Z,47.46
2022-08-09T06:18:25.445Z,46.14
2022-08-09T06:20:57.650Z,46.50
2022-08-09T06:23:57.902Z,46.92
2022-08-09T06:26:21.029Z,46.34
2022-08-09T06:29:00.854Z,45.62
2022-08-09T06:31:40.673Z,44.80
2022-08-09T06:34:26.272Z,45.60
2022-08-09T06:36:59.777Z,44.89
2022-08-09T06:39:49.119Z,44.59
2022-08-09T06:42:20.213Z,43.13
2022-08-09T06:44:54.762Z,42.63
2022-08-09T06:47:24.198Z,42.34
2022-08-09T06:50:14.195Z,42.37
2022-08-09T06:52:46.008Z,42.11
2022-08-09T06:55:16.748Z,41.18
2022-08-09T06:58:02.955Z,41.64
2022-08-09T07:00:48.871Z,42.34
2022-08-09T07:03:27.010Z,41.16
2022-08-09T07:06:02.589Z,41.31
2022-08-09T07:08:35.291Z,40.02
2022-08-09T07:11:06.770Z,39.82
2022-08-09T07:13:45.123Z,39.68
2022-08-09T07:16:41.708Z,40.25
2022-08-09T07:19:18.812Z,40.26
2022-08-09T07:21:57.462Z,40.09
2022-08-09T07:24:32.520Z,37.99
2022-08-09T07:27:10.877Z,37.03
2022-08-09T07:29:57.111Z,36.16
2022-08-09T07:32:32.424Z,36.10
2022-08-09T07:35:07.939Z,34.89
2022-08-09T07:37:42.841Z,35.88
2022-08-09T07:40:17.238Z,34.32
2022-08-09T07:42:50.463Z,33.58
2022-08-09T07:45:23.774Z,35.41
2022-08-09T07:48:28.301Z,33.46
2022-08-09T07:51:09.490Z,32.33
2022-08-09T07:54:07.731Z,31.87
2022-08-09T07:56:34.742Z,31.96
2022-08-09T07:59:15.836Z,32.13
2022-08-09T08:01:54.077Z,32.69
2022-08-09T08:04:25.519Z,31.67
2022-08-09T08:07:00.271Z,31.81
2022-08-09T08:09:42.996Z,30.93
2022-08-09T08:12:27.738Z,29.86
2022-08-09T08:14:57.073Z,29.67
2022-08-09T08:17:52.232Z,29.58
2022-08-09T08:20:19.493Z,30.44
2022-08-09T08:22:58.713Z,28.89
2022-08-09T08:25:43.851Z,28.54
2022-08-09T08:28:25.653Z,28.43
2022-08-09T08:31:02.439Z,27.73
2022-08-09T08:33:40.689Z,28.41
2022-08-09T08:36:29.809Z,30.46
2022-08-09T08:38:59.681Z,28.78
2022-08-09T08:41:50.896Z,27.29
2022-08-09T08:44:27.421Z,31.62
2022-08-09T08:47:04.573Z,29.48
2022-08-09T08:49:48.638Z,28.45
2022-08-09T08:55:17.193Z,29.11
2022-08-09T08:57:56.908Z,28.31
2022-08-09T09:00:30.475Z,27.25
2022-08-09T09:03:08.588Z,27.10
2022-08-09T09:06:00.787Z,28.26
2022-08-09T09:08:40.691Z,29.15
2022-08-09T09:11:13.660Z,27.93
2022-08-09T09:13:56.642Z,27.90
2022-08-09T09:16:31.077Z,28.08
2022-08-09T09:19:22.809Z,27.69
2022-08-09T09:22:04.255Z,27.53
2022-08-09T09:24:39.756Z,27.96
2022-08-09T09:27:22.134Z,28.16
2022-08-09T09:30:26.189Z,27.28
2022-08-09T09:33:15.830Z,28.18
2022-08-09T09:36:01.802Z,27.39
2022-08-09T09:38:43.415Z,27.44
2022-08-09T09:41:33.241Z,28.11
2022-08-09T09:44:12.857Z,26.59
2022-08-09T09:46:45.940Z,26.20
2022-08-09T09:49:31.748Z,26.85
2022-08-09T09:52:33.281Z,25.73
2022-08-09T09:55:16.200Z,25.23
2022-08-09T09:58:12.500Z,25.45
2022-08-09T10:00:54.171Z,25.07
2022-08-09T10:03:56.088Z,24.73
2022-08-09T10:06:25.849Z,24.82
2022-08-09T10:09:02.852Z,24.63
2022-08-09T10:11:54.017Z,24.30
2022-08-09T10:14:33.401Z,23.91
2022-08-09T10:17:39.609Z,23.20
2022-08-09T10:20:04.240Z,23.59
2022-08-09T10:22:35.025Z,21.18
2022-08-09T10:25:11.717Z,20.71
2022-08-09T10:27:57.797Z,20.86
2022-08-09T10:33:29.855Z,18.84
2022-08-09T10:36:09.369Z,17.77
2022-08-09T10:38:57.286Z,18.88
2022-08-09T10:41:28.609Z,18.81
2022-08-09T10:43:59.957Z,19.32
2022-08-09T10:47:03.802Z,19.86
2022-08-09T10:49:51.688Z,20.50
2022-08-09T10:52:42.784Z,18.86
2022-08-09T10:55:24.362Z,17.00
2022-08-09T10:57:55.894Z,18.00
2022-08-09T11:00:41.812Z,18.24
2022-08-09T11:03:49.584Z,17.62
2022-08-09T11:06:26.297Z,18.92
2022-08-09T11:08:55.016Z,18.89
2022-08-09T11:12:11.713Z,19.53
2022-08-09T11:14:44.724Z,21.31
2022-08-09T11:17:53.161Z,21.80
2022-08-09T11:20:41.726Z,22.54
2022-08-09T11:23:13.598Z,21.58
2022-08-09T11:25:50.230Z,20.16
2022-08-09T11:28:56.186Z,19.17
2022-08-09T11:31:49.564Z,16.67
2022-08-09T11:34:34.966Z,14.20
2022-08-09T11:37:09.086Z,15.19
2022-08-09T11:40:05.055Z,14.33
2022-08-09T11:42:47.135Z,12.53
2022-08-09T11:45:26.306Z,10.83
2022-08-09T11:48:24.981Z,11.26
2022-08-09T11:51:19.514Z,11.28
2022-08-09T11:54:27.732Z,14.90
2022-08-09T11:57:47.821Z,16.99
2022-08-09T12:00:27.635Z,16.34
2022-08-09T12:02:57.540Z,17.95
2022-08-09T12:05:39.630Z,16.13
2022-08-09T12:08:12.173Z,16.21
2022-08-09T12:10:48.453Z,15.49
2022-08-09T12:14:07.755Z,15.14
2022-08-09T12:16:37.911Z,15.78
2022-08-09T12:19:12.080Z,16.07
2022-08-09T12:21:48.818Z,16.40
2022-08-09T12:24:23.908Z,15.39
2022-08-09T12:29:10.894Z,14.45
2022-08-09T12:30:29.866Z,15.03
2022-08-09T12:32:48.840Z,13.11
2022-08-09T12:35:21.603Z,16.48
2022-08-09T12:37:52.098Z,17.03
2022-08-09T12:40:27.011Z,18.71
2022-08-09T12:42:57.058Z,17.15
2022-08-09T12:45:34.615Z,15.05
2022-08-09T12:48:31.082Z,13.66
2022-08-09T12:51:00.443Z,16.46
2022-08-09T12:53:38.170Z,15.88
2022-08-09T12:56:39.856Z,14.90
2022-08-09T12:59:10.515Z,13.81
2022-08-09T13:01:46.770Z,15.76
2022-08-09T13:04:38.139Z,18.11
2022-08-09T13:07:14.689Z,17.04
2022-08-09T13:09:52.691Z,16.96
2022-08-09T13:12:24.184Z,15.99
2022-08-09T13:14:55.008Z,14.13
2022-08-09T13:17:58.763Z,13.51
2022-08-09T13:20:23.472Z,14.85
2022-08-09T13:23:04.750Z,13.47
2022-08-09T13:25:42.956Z,12.43
2022-08-09T13:28:34.577Z,11.59
2022-08-09T13:32:12.383Z,9.82
2022-08-09T13:33:56.961Z,9.97
2022-08-09T13:36:42.314Z,9.87
2022-08-09T13:41:55.680Z,11.42
2022-08-09T13:42:04.978Z,11.50
2022-08-09T13:44:34.647Z,12.08
2022-08-09T13:47:26.788Z,11.95
2022-08-09T13:49:57.346Z,10.10
2022-08-09T13:52:28.177Z,10.96
2022-08-09T13:55:00.028Z,11.95
2022-08-09T13:57:36.520Z,11.23
2022-08-09T14:00:12.168Z,11.03
2022-08-09T14:03:16.843Z,11.04
2022-08-09T14:05:58.554Z,15.11
2022-08-09T14:08:29.678Z,13.01
2022-08-09T14:11:00.209Z,12.54
2022-08-09T14:14:23.240Z,12.88
2022-08-09T14:16:19.974Z,13.63
2022-08-09T14:18:58.257Z,13.48
2022-08-09T14:21:29.521Z,13.49
2022-08-09T14:24:10.516Z,13.76
2022-08-09T14:26:56.356Z,13.41
2022-08-09T14:30:34.592Z,13.37
2022-08-09T14:32:19.625Z,13.49
2022-08-09T14:34:57.003Z,11.93
2022-08-09T14:37:28.396Z,10.89
2022-08-09T14:39:58.572Z,9.38
2022-08-09T14:42:30.801Z,10.93
2022-08-09T14:46:38.826Z,11.36
2022-08-09T14:48:02.302Z,13.98
2022-08-09T14:50:33.032Z,15.98
2022-08-09T14:53:02.639Z,18.47
2022-08-09T14:55:33.053Z,18.62
2022-08-09T14:58:03.391Z,17.24
2022-08-09T15:00:33.345Z,14.28
2022-08-09T15:03:04.015Z,13.06
2022-08-09T15:05:33.582Z,15.17
2022-08-09T15:08:01.976Z,16.75
2022-08-09T15:10:32.704Z,15.96
2022-08-09T15:13:02.979Z,13.78
2022-08-09T15:15:34.442Z,16.24
2022-08-09T15:18:12.446Z,16.80
2022-08-09T15:21:55.257Z,15.85
2022-08-09T15:24:06.010Z,18.42
2022-08-09T15:26:28.393Z,18.94
2022-08-09T15:29:04.301Z,16.28
2022-08-09T15:31:41.530Z,15.25
2022-08-09T15:34:32.205Z,14.99
2022-08-09T15:37:04.241Z,14.04
2022-08-09T15:39:34.741Z,15.15
2022-08-09T15:42:22.901Z,17.57
2022-08-09T15:44:51.364Z,18.15
2022-08-09T15:47:23.553Z,16.98
2022-08-09T15:50:04.943Z,15.89
2022-08-09T15:52:35.696Z,18.20
2022-08-09T15:55:05.919Z,19.91
2022-08-09T15:57:44.530Z,20.07
2022-08-09T16:00:25.357Z,20.96
2022-08-09T16:02:56.843Z,20.73
2022-08-09T16:05:47.698Z,19.25
2022-08-09T16:08:30.578Z,17.89
2022-08-09T16:11:00.081Z,16.92
2022-08-09T16:14:05.849Z,15.90
2022-08-09T16:16:28.298Z,14.72
2022-08-09T16:18:56.527Z,14.25
2022-08-09T16:21:25.054Z,15.69
2022-08-09T16:23:54.945Z,18.70
2022-08-09T16:26:35.485Z,19.89
2022-08-09T16:29:11.069Z,19.40
2022-08-09T16:32:18.206Z,20.37
2022-08-09T16:34:56.040Z,19.85
2022-08-09T16:37:18.754Z,20.22
2022-08-09T16:39:54.563Z,22.03
2022-08-09T16:42:33.673Z,22.90
2022-08-09T16:45:03.817Z,23.12
2022-08-09T16:48:38.850Z,21.98
2022-08-09T16:50:31.958Z,20.01
2022-08-09T16:53:02.930Z,18.98
2022-08-09T16:55:58.890Z,19.37
2022-08-09T16:58:23.761Z,18.27
2022-08-09T17:00:53.773Z,18.88
2022-08-09T17:03:23.946Z,19.01
2022-08-09T17:06:03.543Z,19.48
2022-08-09T17:08:59.847Z,19.53
2022-08-09T17:11:37.711Z,20.52
2022-08-09T17:14:26.139Z,20.22
2022-08-09T17:17:01.600Z,20.88
2022-08-09T17:20:05.210Z,20.70
2022-08-09T17:22:29.040Z,21.54
2022-08-09T17:25:03.066Z,21.28
2022-08-09T17:27:32.742Z,21.52
2022-08-09T17:30:04.893Z,21.85
2022-08-09T17:32:39.216Z,21.83
2022-08-09T17:35:15.927Z,21.33
2022-08-09T17:38:14.449Z,21.92
2022-08-09T17:40:34.652Z,21.28
2022-08-09T17:43:32.210Z,21.33
2022-08-09T17:46:03.767Z,22.01
2022-08-09T17:48:38.693Z,21.76
2022-08-09T17:51:17.488Z,21.77
2022-08-09T17:53:51.612Z,21.52
2022-08-09T17:56:27.647Z,22.17
2022-08-09T17:58:59.430Z,22.52
2022-08-09T18:02:03.853Z,22.49
2022-08-09T18:04:19.574Z,22.36
2022-08-09T18:06:49.649Z,23.01
2022-08-09T18:09:25.150Z,23.06
2022-08-09T18:12:15.500Z,23.70
2022-08-09T18:14:53.535Z,23.75
2022-08-09T18:17:27.123Z,24.61
2022-08-09T18:20:54.437Z,24.87
2022-08-09T18:23:05.232Z,24.83
2022-08-09T18:25:52.781Z,25.33
2022-08-09T18:30:35.737Z,25.71
2022-08-09T18:31:13.880Z,25.56
2022-08-09T18:33:53.068Z,25.85
2022-08-09T18:36:25.914Z,26.17
2022-08-09T18:39:02.562Z,26.63
2022-08-09T18:41:34.339Z,26.85
2022-08-09T18:44:13.528Z,27.09
2022-08-09T18:46:49.336Z,27.27
2022-08-09T18:49:24.505Z,27.83
2022-08-09T18:51:55.046Z,27.79
2022-08-09T18:54:28.668Z,27.75
2022-08-09T18:57:05.470Z,28.13
2022-08-09T18:59:49.354Z,28.46
2022-08-09T19:02:23.957Z,28.72
2022-08-09T19:05:15.277Z,28.82
2022-08-09T19:07:59.410Z,29.04
2022-08-09T19:10:40.004Z,29.34
2022-08-09T19:13:23.587Z,29.36
2022-08-09T19:16:00.140Z,29.57
2022-08-09T19:18:33.248Z,29.55
2022-08-09T19:21:05.608Z,29.67
2022-08-09T19:24:33.357Z,29.63
2022-08-09T19:26:29.591Z,29.82
2022-08-09T19:29:01.658Z,29.71
2022-08-09T19:31:45.086Z,29.94
2022-08-09T19:34:18.286Z,29.89
2022-08-09T19:36:52.717Z,30.19
2022-08-09T19:39:43.242Z,30.28
2022-08-09T19:42:19.078Z,30.50
2022-08-09T19:44:50.774Z,30.59
2022-08-09T19:47:23.393Z,30.79
2022-08-09T19:50:05.370Z,30.86
2022-08-09T19:52:37.210Z,31.07
2022-08-09T19:55:19.867Z,31.43
2022-08-09T19:57:59.695Z,31.32
2022-08-09T20:00:28.162Z,31.30
2022-08-09T20:04:29.823Z,31.71
2022-08-09T20:05:45.913Z,31.84
2022-08-09T20:08:16.191Z,32.01
2022-08-09T20:11:04.504Z,32.22
2022-08-09T20:13:37.119Z,32.32
2022-08-09T20:16:35.105Z,32.42
2022-08-09T20:19:41.872Z,32.58
2022-08-09T20:21:56.453Z,32.63
2022-08-09T20:24:29.853Z,32.94
2022-08-09T20:27:08.464Z,32.91
2022-08-09T20:29:39.062Z,33.09
2022-08-09T20:32:28.967Z,33.20
2022-08-09T20:34:57.245Z,33.06
2022-08-09T20:37:25.437Z,33.14
2022-08-09T20:40:15.321Z,33.18
2022-08-09T20:42:53.215Z,33.18
2022-08-09T20:46:00.839Z,33.28
2022-08-09T20:48:21.299Z,33.48
2022-08-09T20:50:55.713Z,33.54
2022-08-09T20:53:37.653Z,33.63
2022-08-09T20:56:20.323Z,33.73
2022-08-09T20:58:58.694Z,34.16
2022-08-09T21:01:35.443Z,34.06
2022-08-09T21:05:54.868Z,34.11
2022-08-09T21:07:11.962Z,34.31
2022-08-09T21:09:55.345Z,34.49
2022-08-09T21:15:14.498Z,34.47
2022-08-09T21:18:11.090Z,34.86
2022-08-09T21:20:33.094Z,35.10
2022-08-09T21:23:04.264Z,35.08
2022-08-09T21:25:55.272Z,35.09
2022-08-09T21:28:33.303Z,35.29
2022-08-09T21:31:17.857Z,35.43
2022-08-09T21:33:53.178Z,35.78
2022-08-09T21:36:28.833Z,35.85
2022-08-09T21:38:59.447Z,36.05
2022-08-09T21:42:04.514Z,35.99
2022-08-09T21:44:33.731Z,36.00
2022-08-09T21:47:11.702Z,35.93
2022-08-09T21:49:46.539Z,36.15
2022-08-09T21:52:20.718Z,36.56
2022-08-09T21:54:57.120Z,36.36
2022-08-09T21:57:39.120Z,36.68
2022-08-09T22:00:26.842Z,36.85
2022-08-09T22:03:05.947Z,37.13
2022-08-09T22:05:36.043Z,37.39
2022-08-09T22:08:13.690Z,37.38
2022-08-09T22:11:00.602Z,37.60
2022-08-09T22:13:34.490Z,37.79
2022-08-09T22:16:07.486Z,37.89
2022-08-09T22:18:52.813Z,38.04
2022-08-09T22:21:24.724Z,37.79
2022-08-09T22:23:59.195Z,37.92
2022-08-09T22:26:35.235Z,37.99
2022-08-09T22:29:10.199Z,38.09
2022-08-09T22:31:50.368Z,38.09
2022-08-09T22:34:29.924Z,38.13
2022-08-09T22:36:59.865Z,38.54
2022-08-09T22:39:55.565Z,38.58
2022-08-09T22:42:22.367Z,38.85
2022-08-09T22:48:04.933Z,39.10
2022-08-09T22:48:14.690Z,39.21
2022-08-09T22:50:32.927Z,39.38
2022-08-09T22:53:04.271Z,39.62
2022-08-09T22:56:30.893Z,39.99
2022-08-09T22:58:33.050Z,39.99
2022-08-09T23:01:02.435Z,39.97
2022-08-09T23:04:04.276Z,39.99
2022-08-09T23:06:35.073Z,39.99
2022-08-09T23:09:05.723Z,39.92
2022-08-09T23:11:34.065Z,39.84
2022-08-09T23:14:03.230Z,40.19
2022-08-09T23:16:32.414Z,40.24
2022-08-09T23:19:00.711Z,40.55
2022-08-09T23:21:33.719Z,40.80
2022-08-09T23:24:07.153Z,40.84
2022-08-09T23:26:36.550Z,41.09
2022-08-09T23:29:05.329Z,40.87
2022-08-09T23:31:33.188Z,41.24
2022-08-09T23:34:02.614Z,41.61
2022-08-09T23:36:33.741Z,42.18
2022-08-09T23:39:02.665Z,42.20
2022-08-09T23:41:30.931Z,42.50
2022-08-09T23:44:00.120Z,42.35
2022-08-09T23:46:29.240Z,42.67
2022-08-09T23:48:57.922Z,42.82
2022-08-09T23:51:28.544Z,42.76
2022-08-09T23:54:01.898Z,43.00
2022-08-09T23:56:52.860Z,43.05
2022-08-09T23:59:20.627Z,43.29
